• Join FlightAware (Why Join?)
  • Login
  • US Flag 
09:06AM EST


 

Airport Tracker/Info


-or-


 

Live Flight TrackerFlight Track Log ✈ USC250 ✈ 24-Apr-2012 ✈ KTEB - KBWI

Flight Track Log - Related Links

Times and Time Zones

All times are in EDT time to prevent confusion due to time zone crossing. See the USC250 flight status page for this flight to view local times or setup timezone preferences in your user account.

Time Position Orientation Groundspeed Altitude Reporting Facility
EDT Latitude Longitude Course Direction KTS MPH feet Rate Location/Type
11:54PM 40.8405 -74.0762 257° West  Level FlightAware Approximate
11:55PM 40.8167 -74.2167 270° West 112 129 3,900  Level New York TRACON
11:56PM 40.8167 -74.2667 237° Southwest 93 107 5,600 960 Climbing New York TRACON
11:57PM 40.8000 -74.3000 246° West 131 151 6,000 180 Climbing New York TRACON
11:58PM 40.7833 -74.3500 246° West 161 185 6,000  Level New York TRACON
11:59PM 40.7667 -74.4000 252° West 168 193 6,000  Level New York TRACON
12:00AM 40.7500 -74.4667 242° Southwest 170 196 6,000  Level New York TRACON
12:35AM 40.0000 -76.2500 217° Southwest 184 212 6,000  Level Potomac TRACON
12:36AM 39.9667 -76.2833 191° South 184 212 6,000  Level Potomac TRACON
12:37AM 39.9000 -76.3000 218° Southwest 185 213 6,000  Level Potomac TRACON
12:38AM 39.8667 -76.3333 191° South 185 213 6,000  Level Potomac TRACON
12:39AM 39.8000 -76.3500 207° Southwest 187 215 6,000  Level Potomac TRACON
12:40AM 39.7500 -76.3833 194° South 189 217 6,000  Level Potomac TRACON
12:41AM 39.7000 -76.4000 207° Southwest 187 215 6,000 -120 Level Potomac TRACON
12:43AM 39.6500 -76.4333 194° South 188 216 5,800 -480 Descending Potomac TRACON
12:44AM 39.6000 -76.4500 207° Southwest 203 234 5,100 -660 Descending Potomac TRACON
12:45AM 39.5500 -76.4833 194° South 200 230 4,500 -600 Descending Potomac TRACON
12:46AM 39.5000 -76.5000 207° Southwest 195 224 4,000 -600 Descending Potomac TRACON
12:47AM 39.4500 -76.5333 194° South 193 222 3,400 -600 Descending Potomac TRACON
12:48AM 39.4000 -76.5500 194° South 190 219 2,900 -300 Descending Potomac TRACON
12:48AM 39.3500 -76.5667 218° Southwest 170 196 2,900 -60 Level Potomac TRACON
12:49AM 39.3167 -76.6000 207° Southwest 170 196 2,800 -300 Descending Potomac TRACON
12:50AM 39.2667 -76.6333 218° Southwest 174 200 2,300 -600 Descending Potomac TRACON
12:51AM 39.2333 -76.6667 201° Southwest 155 178 1,600 -780 Descending Potomac TRACON
12:52AM 39.2000 -76.6833 142° Southeast 142 163 800 -540 Descending Potomac TRACON
12:54AM 39.1833 -76.6667 142° Southeast 15 17 100 -360 Descending Potomac TRACON